createdAt,value
2018-11-29T00:00:23.760Z,1.57
2018-11-29T00:02:53.516Z,1.73
2018-11-29T00:05:22.251Z,1.64
2018-11-29T00:07:50.987Z,1.73
2018-11-29T00:10:19.739Z,1.49
2018-11-29T00:12:48.450Z,1.74
2018-11-29T00:15:17.324Z,1.63
2018-11-29T00:17:46.019Z,1.78
2018-11-29T00:20:15.647Z,1.71
2018-11-29T00:22:45.152Z,1.83
2018-11-29T00:25:15.371Z,1.61
2018-11-29T00:27:44.319Z,1.57
2018-11-29T00:30:19.799Z,1.73
2018-11-29T00:32:48.610Z,1.72
2018-11-29T00:35:17.930Z,1.71
2018-11-29T00:37:46.700Z,1.71
2018-11-29T00:40:18.388Z,1.86
2018-11-29T00:42:47.087Z,1.93
2018-11-29T00:45:17.579Z,1.94
2018-11-29T00:47:46.899Z,1.95
2018-11-29T00:50:16.240Z,1.88
2018-11-29T00:52:45.716Z,1.78
2018-11-29T00:55:16.216Z,1.73
2018-11-29T00:57:44.961Z,1.53
2018-11-29T01:00:18.392Z,1.45
2018-11-29T01:02:47.101Z,1.38
2018-11-29T01:05:15.853Z,1.68
2018-11-29T01:07:44.612Z,1.78
2018-11-29T01:10:14.953Z,1.78
2018-11-29T01:12:43.912Z,1.71
2018-11-29T01:15:14.274Z,1.68
2018-11-29T01:17:43.229Z,1.71
2018-11-29T01:20:12.887Z,1.56
2018-11-29T01:22:41.658Z,1.39
2018-11-29T01:25:11.375Z,1.17
2018-11-29T01:27:40.228Z,1.13
2018-11-29T01:30:11.708Z,1.29
2018-11-29T01:32:40.447Z,1.23
2018-11-29T01:35:10.376Z,1.14
2018-11-29T01:37:39.199Z,1.35
2018-11-29T01:40:10.963Z,1.04
2018-11-29T01:42:39.691Z,1.29
2018-11-29T01:45:08.419Z,1.35
2018-11-29T01:47:37.124Z,1.43
2018-11-29T01:50:05.905Z,1.46
2018-11-29T01:52:34.642Z,1.56
2018-11-29T01:55:03.351Z,1.56
2018-11-29T01:57:32.284Z,1.48
2018-11-29T02:00:00.969Z,1.39
2018-11-29T02:02:29.688Z,1.40
2018-11-29T02:04:58.412Z,1.41
2018-11-29T02:07:27.132Z,1.36
2018-11-29T02:10:00.890Z,1.47
2018-11-29T02:12:29.580Z,1.53
2018-11-29T02:14:58.320Z,1.63
2018-11-29T02:17:27.015Z,1.38
2018-11-29T02:19:55.745Z,1.36
2018-11-29T02:22:24.447Z,1.46
2018-11-29T02:24:53.207Z,1.44
2018-11-29T02:27:21.916Z,1.31
2018-11-29T02:29:50.650Z,1.43
2018-11-29T02:32:19.351Z,1.61
2018-11-29T02:34:48.061Z,1.50
2018-11-29T02:37:16.776Z,1.39
2018-11-29T02:39:45.520Z,1.31
2018-11-29T02:42:14.249Z,1.20
2018-11-29T02:44:42.965Z,1.21
2018-11-29T02:47:11.659Z,1.18
2018-11-29T02:49:40.348Z,1.21
2018-11-29T02:52:09.024Z,1.43
2018-11-29T02:54:37.720Z,1.49
2018-11-29T02:57:06.460Z,1.58
2018-11-29T02:59:35.189Z,1.41
2018-11-29T03:02:03.984Z,1.43
2018-11-29T03:04:32.684Z,1.32
2018-11-29T03:07:01.379Z,1.09
2018-11-29T03:09:30.123Z,1.02
2018-11-29T03:11:58.817Z,1.13
2018-11-29T03:14:27.523Z,1.38
2018-11-29T03:16:56.227Z,1.40
2018-11-29T03:19:24.951Z,1.36
2018-11-29T03:21:53.657Z,1.28
2018-11-29T03:24:22.368Z,1.34
2018-11-29T03:26:51.099Z,1.32
2018-11-29T03:29:19.815Z,1.51
2018-11-29T03:31:48.591Z,1.37
2018-11-29T03:34:17.320Z,1.34
2018-11-29T03:36:46.031Z,1.47
2018-11-29T03:39:14.751Z,1.41
2018-11-29T03:41:43.460Z,1.55
2018-11-29T03:44:12.167Z,1.60
2018-11-29T03:46:40.944Z,1.46
2018-11-29T03:49:09.680Z,1.60
2018-11-29T03:51:38.369Z,1.46
2018-11-29T03:54:07.147Z,1.43
2018-11-29T03:56:35.858Z,1.48
2018-11-29T03:59:04.570Z,1.62
2018-11-29T04:01:33.274Z,1.45
2018-11-29T04:04:01.984Z,1.54
2018-11-29T04:06:30.687Z,1.35
2018-11-29T04:08:59.456Z,1.42
2018-11-29T04:11:28.161Z,1.35
2018-11-29T04:13:56.905Z,1.40
2018-11-29T04:16:25.626Z,1.35
2018-11-29T04:18:54.376Z,1.25
2018-11-29T04:21:23.095Z,1.27
2018-11-29T04:23:51.815Z,1.51
2018-11-29T04:26:20.530Z,1.50
2018-11-29T04:28:49.271Z,1.56
2018-11-29T04:31:17.964Z,1.56
2018-11-29T04:33:46.690Z,1.69
2018-11-29T04:36:15.436Z,1.74
2018-11-29T04:38:44.156Z,1.73
2018-11-29T04:41:12.896Z,1.78
2018-11-29T04:43:41.670Z,1.78
2018-11-29T04:47:14.868Z,1.80
2018-11-29T04:49:43.785Z,1.41
2018-11-29T04:52:12.710Z,1.37
2018-11-29T04:54:41.440Z,1.29
2018-11-29T04:57:10.177Z,1.38
2018-11-29T04:59:38.884Z,1.42
2018-11-29T05:02:07.653Z,1.57
2018-11-29T05:04:36.385Z,1.58
2018-11-29T05:07:05.119Z,1.66
2018-11-29T05:09:33.832Z,1.61
2018-11-29T05:12:02.556Z,1.51
2018-11-29T05:14:31.231Z,1.60
2018-11-29T05:17:00.016Z,1.60
2018-11-29T05:19:28.747Z,1.25
2018-11-29T05:21:57.458Z,1.37
2018-11-29T05:24:26.177Z,1.43
2018-11-29T05:26:55.046Z,1.51
2018-11-29T05:29:23.782Z,1.44
2018-11-29T05:31:52.562Z,1.46
2018-11-29T05:34:21.296Z,1.30
2018-11-29T05:36:50.015Z,1.31
2018-11-29T05:39:18.724Z,1.25
2018-11-29T05:41:47.442Z,1.02
2018-11-29T05:44:16.152Z,0.96
2018-11-29T05:46:44.869Z,1.09
2018-11-29T05:49:13.576Z,1.09
2018-11-29T05:51:42.299Z,0.92
2018-11-29T05:54:12.905Z,1.20
2018-11-29T05:56:41.623Z,0.99
2018-11-29T05:59:10.321Z,1.04
2018-11-29T06:01:41.056Z,1.08
2018-11-29T06:04:09.880Z,0.87
2018-11-29T06:06:38.613Z,0.73
2018-11-29T06:09:10.612Z,0.88
2018-11-29T06:11:39.867Z,0.90
2018-11-29T06:14:08.930Z,0.92
2018-11-29T06:16:38.278Z,0.83
2018-11-29T06:19:08.193Z,0.86
2018-11-29T06:21:36.923Z,0.88
2018-11-29T06:24:05.900Z,0.76
2018-11-29T06:26:34.623Z,0.86
2018-11-29T06:29:03.365Z,0.74
2018-11-29T06:31:32.134Z,0.72
2018-11-29T06:34:00.874Z,0.60
2018-11-29T06:36:29.615Z,0.71
2018-11-29T06:38:58.351Z,0.46
2018-11-29T06:41:27.171Z,0.43
2018-11-29T06:43:55.901Z,0.38
2018-11-29T06:46:25.713Z,0.67
2018-11-29T06:48:53.395Z,0.51
2018-11-29T06:51:22.115Z,0.70
2018-11-29T06:53:55.944Z,0.77
2018-11-29T06:56:24.679Z,0.88
2018-11-29T06:58:53.417Z,1.05
2018-11-29T07:01:22.180Z,1.03
2018-11-29T07:03:50.985Z,1.23
2018-11-29T07:06:19.728Z,1.25
2018-11-29T07:08:48.448Z,1.43
2018-11-29T07:11:17.164Z,1.48
2018-11-29T07:13:45.875Z,1.50
2018-11-29T07:16:14.617Z,1.61
2018-11-29T07:18:43.352Z,1.62
2018-11-29T07:21:23.080Z,1.58
2018-11-29T07:23:51.778Z,1.62
2018-11-29T07:26:20.550Z,1.77
2018-11-29T07:28:49.275Z,1.76
2018-11-29T07:31:18.022Z,1.74
2018-11-29T07:33:46.752Z,1.76
2018-11-29T07:36:15.509Z,1.92
2018-11-29T07:38:44.233Z,1.73
2018-11-29T07:41:12.963Z,1.59
2018-11-29T07:43:41.705Z,1.62
2018-11-29T07:46:10.413Z,1.44
2018-11-29T07:48:39.117Z,1.61
2018-11-29T07:51:07.885Z,1.49
2018-11-29T07:53:36.636Z,1.50
2018-11-29T07:56:05.467Z,1.52
2018-11-29T07:58:34.152Z,1.51
2018-11-29T08:01:02.906Z,1.58
2018-11-29T08:03:31.596Z,1.48
2018-11-29T08:06:00.317Z,1.53
2018-11-29T08:08:29.019Z,1.52
2018-11-29T08:10:57.740Z,1.51
2018-11-29T08:13:26.448Z,1.55
2018-11-29T08:15:55.165Z,1.46
2018-11-29T08:18:23.891Z,1.63
2018-11-29T08:20:52.699Z,1.67
2018-11-29T08:23:21.387Z,1.76
2018-11-29T08:25:50.119Z,1.73
2018-11-29T08:28:18.810Z,1.89
2018-11-29T08:30:47.541Z,1.85
2018-11-29T08:33:16.243Z,1.90
2018-11-29T08:35:45.023Z,2.05
2018-11-29T08:38:13.729Z,2.21
2018-11-29T08:40:42.455Z,2.21
2018-11-29T08:43:11.156Z,2.25
2018-11-29T08:45:39.864Z,2.35
2018-11-29T08:48:08.560Z,2.29
2018-11-29T08:50:37.345Z,2.18
2018-11-29T08:53:11.844Z,2.43
2018-11-29T08:55:40.609Z,2.28
2018-11-29T08:58:09.315Z,2.36
2018-11-29T09:00:38.033Z,2.37
2018-11-29T09:03:06.784Z,2.58
2018-11-29T09:05:35.584Z,2.72
2018-11-29T09:08:04.328Z,2.74
2018-11-29T09:10:33.041Z,2.74
2018-11-29T09:13:01.761Z,2.78
2018-11-29T09:15:30.487Z,2.84
2018-11-29T09:17:59.239Z,2.95
2018-11-29T09:20:27.960Z,2.93
2018-11-29T09:22:56.677Z,3.07
2018-11-29T09:25:25.413Z,3.25
2018-11-29T09:27:54.104Z,3.30
2018-11-29T09:30:23.703Z,3.31
2018-11-29T09:32:54.207Z,3.52
2018-11-29T09:35:23.037Z,3.67
2018-11-29T09:37:51.672Z,3.65
2018-11-29T09:40:20.488Z,3.87
2018-11-29T09:42:49.244Z,3.69
2018-11-29T09:45:19.644Z,3.83
2018-11-29T09:47:49.483Z,3.95
2018-11-29T09:50:18.546Z,3.87
2018-11-29T09:52:47.234Z,3.96
2018-11-29T09:55:16.643Z,4.17
2018-11-29T09:57:45.753Z,4.11
2018-11-29T10:00:27.113Z,4.13
2018-11-29T10:03:08.028Z,4.39
2018-11-29T10:05:36.896Z,4.43
2018-11-29T10:08:11.877Z,4.51
2018-11-29T10:10:35.044Z,4.57
2018-11-29T10:13:03.712Z,4.60
2018-11-29T10:15:32.372Z,4.49
2018-11-29T10:18:01.085Z,4.69
2018-11-29T10:20:29.743Z,4.70
2018-11-29T10:22:58.396Z,4.86
2018-11-29T10:25:27.085Z,5.10
2018-11-29T10:28:01.333Z,5.21
2018-11-29T10:30:33.731Z,5.40
2018-11-29T10:33:02.368Z,5.36
2018-11-29T10:35:31.519Z,5.20
2018-11-29T10:38:00.128Z,5.17
2018-11-29T10:40:28.759Z,5.10
2018-11-29T10:42:57.448Z,5.03
2018-11-29T10:45:26.084Z,5.09
2018-11-29T10:47:55.522Z,5.19
2018-11-29T10:50:24.194Z,5.26
2018-11-29T10:52:52.812Z,5.19
2018-11-29T10:55:21.474Z,5.41
2018-11-29T11:00:35.159Z,5.49
2018-11-29T11:03:12.399Z,5.54
2018-11-29T11:05:41.188Z,5.42
2018-11-29T11:08:10.239Z,5.38
2018-11-29T11:10:39.952Z,5.39
2018-11-29T11:13:08.888Z,5.74
2018-11-29T11:15:38.208Z,5.81
2018-11-29T11:18:08.333Z,5.79
2018-11-29T11:20:37.286Z,5.98
2018-11-29T11:23:06.105Z,6.23
2018-11-29T11:25:34.868Z,6.44
2018-11-29T11:28:04.204Z,6.41
2018-11-29T11:30:33.105Z,6.56
2018-11-29T11:33:01.833Z,6.60
2018-11-29T11:35:31.652Z,6.41
2018-11-29T11:38:00.384Z,6.58
2018-11-29T11:40:29.307Z,6.64
2018-11-29T11:42:57.966Z,6.82
2018-11-29T11:45:26.754Z,6.99
2018-11-29T11:47:55.416Z,7.03
2018-11-29T11:50:25.108Z,7.09
2018-11-29T11:52:55.006Z,7.28
2018-11-29T11:55:30.079Z,7.15
2018-11-29T11:57:52.735Z,7.21
2018-11-29T12:00:25.797Z,7.40
2018-11-29T12:03:00.606Z,7.66
2018-11-29T12:05:29.401Z,7.95
2018-11-29T12:07:58.080Z,8.40
2018-11-29T12:10:26.893Z,8.63
2018-11-29T12:12:55.564Z,8.89
2018-11-29T12:15:24.300Z,9.04
2018-11-29T12:17:53.176Z,9.30
2018-11-29T12:20:21.924Z,9.50
2018-11-29T12:22:50.588Z,9.33
2018-11-29T12:25:20.433Z,9.71
2018-11-29T12:27:49.316Z,9.05
2018-11-29T12:30:29.121Z,8.81
2018-11-29T12:33:00.130Z,8.87
2018-11-29T12:35:28.929Z,8.76
2018-11-29T12:37:57.708Z,8.51
2018-11-29T12:40:26.443Z,8.25
2018-11-29T12:42:55.172Z,8.08
2018-11-29T12:45:23.870Z,7.85
2018-11-29T12:47:52.622Z,7.66
2018-11-29T12:50:22.860Z,7.86
2018-11-29T12:52:51.522Z,7.88
2018-11-29T12:55:21.261Z,7.70
2018-11-29T12:58:04.417Z,7.52
2018-11-29T13:00:19.895Z,7.25
2018-11-29T13:02:56.688Z,7.31
2018-11-29T13:05:26.147Z,7.28
2018-11-29T13:07:55.064Z,7.18
2018-11-29T13:10:25.786Z,7.24
2018-11-29T13:12:54.968Z,7.23
2018-11-29T13:15:35.351Z,7.25
2018-11-29T13:18:07.712Z,7.37
2018-11-29T13:20:38.419Z,7.33
2018-11-29T13:23:07.520Z,7.30
2018-11-29T13:25:39.300Z,7.21
2018-11-29T13:28:08.560Z,7.39
2018-11-29T13:30:38.235Z,7.38
2018-11-29T13:33:10.768Z,7.02
2018-11-29T13:35:39.465Z,6.97
2018-11-29T13:38:10.917Z,7.09
2018-11-29T13:40:40.129Z,7.03
2018-11-29T13:43:08.807Z,6.84
2018-11-29T13:45:37.649Z,6.81
2018-11-29T13:48:07.541Z,6.84
2018-11-29T13:50:36.248Z,6.73
2018-11-29T13:53:05.776Z,6.82
2018-11-29T13:55:35.098Z,6.83
2018-11-29T13:58:03.928Z,6.80
2018-11-29T14:00:32.680Z,6.75
2018-11-29T14:03:03.548Z,6.81
2018-11-29T14:05:32.225Z,6.71
2018-11-29T14:08:01.275Z,6.53
2018-11-29T14:10:29.975Z,6.39
2018-11-29T14:12:58.655Z,6.35
2018-11-29T14:15:28.552Z,6.35
2018-11-29T14:17:57.265Z,6.32
2018-11-29T14:20:25.955Z,6.18
2018-11-29T14:22:54.846Z,6.11
2018-11-29T14:25:23.636Z,5.89
2018-11-29T14:27:54.621Z,6.06
2018-11-29T14:30:28.363Z,5.95
2018-11-29T14:32:58.376Z,5.89
2018-11-29T14:35:27.216Z,5.97
2018-11-29T14:37:55.874Z,5.95
2018-11-29T14:40:25.568Z,6.00
2018-11-29T14:42:54.277Z,5.97
2018-11-29T14:45:26.127Z,5.73
2018-11-29T14:47:55.249Z,5.79
2018-11-29T14:50:28.984Z,5.83
2018-11-29T14:52:57.664Z,5.77
2018-11-29T14:55:26.429Z,5.53
2018-11-29T14:57:55.256Z,5.66
2018-11-29T15:00:23.901Z,5.58
2018-11-29T15:02:52.880Z,5.49
2018-11-29T15:05:28.950Z,5.47
2018-11-29T15:07:57.611Z,5.44
2018-11-29T15:10:26.299Z,5.41
2018-11-29T15:12:55.131Z,5.43
2018-11-29T15:15:23.765Z,5.34
2018-11-29T15:17:53.601Z,5.24
2018-11-29T15:20:23.789Z,5.26
2018-11-29T15:22:52.528Z,5.35
2018-11-29T15:25:21.285Z,5.27
2018-11-29T15:27:49.992Z,5.02
2018-11-29T15:30:20.557Z,5.06
2018-11-29T15:32:48.944Z,4.91
2018-11-29T15:35:17.719Z,4.93
2018-11-29T15:37:46.529Z,4.94
2018-11-29T15:40:16.389Z,4.97
2018-11-29T15:42:45.172Z,4.93
2018-11-29T15:45:20.086Z,5.08
2018-11-29T15:47:48.932Z,4.96
2018-11-29T15:50:17.861Z,4.96
2018-11-29T15:52:46.690Z,4.92
2018-11-29T15:55:23.413Z,4.82
2018-11-29T15:57:54.198Z,4.77
2018-11-29T16:00:26.058Z,4.77
2018-11-29T16:02:55.807Z,4.70
2018-11-29T16:05:24.531Z,4.83
2018-11-29T16:07:53.348Z,4.68
2018-11-29T16:10:23.985Z,4.62
2018-11-29T16:12:52.775Z,4.66
2018-11-29T16:15:22.067Z,4.53
2018-11-29T16:17:51.985Z,4.49
2018-11-29T16:20:22.187Z,4.50
2018-11-29T16:22:51.062Z,4.52
2018-11-29T16:25:19.844Z,4.55
2018-11-29T16:27:48.618Z,4.60
2018-11-29T16:30:23.839Z,4.64
2018-11-29T16:32:52.990Z,4.58
2018-11-29T16:35:21.778Z,4.61
2018-11-29T16:37:50.580Z,4.64
2018-11-29T16:40:19.381Z,4.63
2018-11-29T16:42:48.076Z,4.47
2018-11-29T16:45:16.759Z,4.29
2018-11-29T16:47:45.430Z,4.38
2018-11-29T16:50:15.375Z,4.15
2018-11-29T16:52:44.132Z,4.37
2018-11-29T16:55:13.343Z,4.31
2018-11-29T16:57:45.876Z,4.26
2018-11-29T17:00:20.384Z,4.28
2018-11-29T17:02:49.211Z,4.25
2018-11-29T17:05:18.034Z,4.32
2018-11-29T17:07:46.816Z,4.38
2018-11-29T17:10:18.901Z,4.44
2018-11-29T17:12:51.647Z,4.45
2018-11-29T17:15:20.642Z,4.30
2018-11-29T17:17:49.308Z,4.39
2018-11-29T17:20:19.084Z,4.41
2018-11-29T17:22:49.084Z,4.48
2018-11-29T17:25:17.899Z,4.37
2018-11-29T17:27:46.564Z,4.25
2018-11-29T17:30:16.448Z,4.42
2018-11-29T17:32:45.118Z,4.41
2018-11-29T17:35:13.860Z,4.36
2018-11-29T17:37:42.712Z,4.44
2018-11-29T17:40:13.788Z,4.34
2018-11-29T17:42:42.534Z,4.39
2018-11-29T17:45:14.652Z,4.13
2018-11-29T17:47:44.127Z,4.28
2018-11-29T17:50:45.195Z,4.21
2018-11-29T17:53:13.925Z,4.06
2018-11-29T17:55:43.672Z,4.22
2018-11-29T17:58:13.204Z,4.01
2018-11-29T18:00:42.703Z,4.21
2018-11-29T18:03:12.056Z,4.07
2018-11-29T18:05:40.876Z,4.22
2018-11-29T18:08:09.692Z,4.14
2018-11-29T18:10:40.096Z,4.16
2018-11-29T18:13:17.265Z,4.12
2018-11-29T18:15:46.064Z,3.99
2018-11-29T18:18:14.840Z,3.98
2018-11-29T18:20:43.618Z,3.98
2018-11-29T18:23:12.392Z,3.96
2018-11-29T18:25:41.145Z,4.06
2018-11-29T18:28:10.817Z,3.99
2018-11-29T18:30:39.613Z,3.97
2018-11-29T18:33:08.471Z,3.90
2018-11-29T18:35:37.302Z,3.93
2018-11-29T18:38:07.238Z,3.99
2018-11-29T18:40:36.518Z,4.06
2018-11-29T18:43:07.144Z,3.92
2018-11-29T18:45:35.938Z,4.13
2018-11-29T18:48:04.747Z,4.35
2018-11-29T18:50:33.446Z,4.34
2018-11-29T18:53:02.176Z,4.32
2018-11-29T18:55:30.997Z,4.30
2018-11-29T18:57:59.652Z,4.43
2018-11-29T19:00:33.887Z,4.42
2018-11-29T19:03:02.562Z,4.30
2018-11-29T19:05:31.341Z,4.23
2018-11-29T19:08:00.109Z,4.25
2018-11-29T19:10:28.813Z,4.40
2018-11-29T19:13:09.414Z,4.23
2018-11-29T19:15:38.181Z,4.30
2018-11-29T19:18:10.502Z,4.27
2018-11-29T19:20:37.435Z,4.22
2018-11-29T19:23:06.440Z,4.14
2018-11-29T19:25:35.294Z,4.15
2018-11-29T19:28:03.976Z,3.98
2018-11-29T19:30:33.076Z,4.08
2018-11-29T19:33:33.723Z,4.21
2018-11-29T19:36:02.648Z,4.16
2018-11-29T19:38:31.484Z,4.04
2018-11-29T19:41:00.235Z,4.11
2018-11-29T19:43:29.059Z,3.82
2018-11-29T19:45:57.909Z,3.87
2018-11-29T19:48:26.648Z,3.83
2018-11-29T19:50:55.468Z,3.96
2018-11-29T19:53:26.873Z,4.01
2018-11-29T19:56:01.115Z,3.88
2018-11-29T19:58:29.886Z,3.79
2018-11-29T20:00:58.696Z,3.81
2018-11-29T20:03:27.393Z,4.10
2018-11-29T20:05:56.200Z,3.93
2018-11-29T20:08:24.944Z,3.72
2018-11-29T20:10:53.799Z,3.90
2018-11-29T20:13:22.432Z,4.10
2018-11-29T20:15:52.826Z,4.21
2018-11-29T20:18:21.652Z,4.09
2018-11-29T20:20:50.717Z,4.05
2018-11-29T20:23:19.571Z,4.04
2018-11-29T20:25:48.536Z,3.97
2018-11-29T20:28:17.263Z,3.94
2018-11-29T20:30:46.086Z,3.97
2018-11-29T20:33:14.910Z,3.88
2018-11-29T20:35:43.697Z,3.83
2018-11-29T20:38:12.448Z,3.94
2018-11-29T20:40:42.708Z,4.06
2018-11-29T20:43:11.479Z,4.07
2018-11-29T20:45:53.907Z,4.03
2018-11-29T20:48:27.836Z,4.00
2018-11-29T20:50:58.037Z,3.86
2018-11-29T20:53:34.589Z,4.06
2018-11-29T20:56:04.219Z,3.86
2018-11-29T20:58:32.984Z,3.97
2018-11-29T21:01:01.906Z,3.98
2018-11-29T21:03:30.674Z,3.91
2018-11-29T21:06:00.060Z,3.98
2018-11-29T21:08:28.862Z,3.91
2018-11-29T21:10:57.644Z,3.84
2018-11-29T21:13:26.368Z,3.76
2018-11-29T21:15:55.128Z,3.63
2018-11-29T21:18:23.948Z,3.72
2018-11-29T21:20:52.976Z,3.66
2018-11-29T21:23:21.715Z,3.67
2018-11-29T21:25:50.463Z,3.86
2018-11-29T21:28:19.283Z,3.80
2018-11-29T21:30:48.137Z,3.79
2018-11-29T21:33:16.846Z,3.76
2018-11-29T21:35:45.847Z,3.80
2018-11-29T21:38:16.776Z,3.75
2018-11-29T21:40:53.328Z,3.82
2018-11-29T21:43:22.084Z,3.88
2018-11-29T21:45:51.019Z,3.78
2018-11-29T21:48:19.837Z,3.80
2018-11-29T21:50:48.831Z,3.73
2018-11-29T21:53:17.580Z,3.62
2018-11-29T21:55:46.407Z,3.70
2018-11-29T21:58:15.200Z,3.59
2018-11-29T22:00:43.971Z,3.42
2018-11-29T22:03:12.757Z,3.60
2018-11-29T22:05:41.517Z,3.48
2018-11-29T22:08:10.426Z,3.33
2018-11-29T22:10:39.323Z,3.24
2018-11-29T22:13:08.076Z,3.39
2018-11-29T22:15:36.942Z,3.39
2018-11-29T22:18:13.813Z,3.34
2018-11-29T22:20:43.009Z,3.37
2018-11-29T22:23:11.776Z,3.30
2018-11-29T22:25:41.263Z,3.50
2018-11-29T22:28:10.228Z,3.58
2018-11-29T22:30:39.087Z,3.65
2018-11-29T22:33:08.059Z,3.41
2018-11-29T22:35:37.052Z,3.53
2018-11-29T22:38:06.904Z,3.37
2018-11-29T22:40:35.772Z,3.51
2018-11-29T22:43:05.525Z,3.45
2018-11-29T22:45:34.306Z,3.44
2018-11-29T22:48:03.301Z,3.39
2018-11-29T22:50:32.076Z,3.31
2018-11-29T22:53:00.960Z,3.32
2018-11-29T22:55:29.748Z,3.33
2018-11-29T22:57:58.512Z,3.42
2018-11-29T23:00:31.882Z,3.37
2018-11-29T23:03:00.969Z,3.38
2018-11-29T23:05:29.812Z,3.11
2018-11-29T23:07:58.538Z,3.19
2018-11-29T23:10:27.858Z,3.35
2018-11-29T23:12:56.263Z,3.24
2018-11-29T23:15:25.161Z,3.31
2018-11-29T23:17:54.047Z,3.17
2018-11-29T23:20:23.056Z,3.00
2018-11-29T23:22:51.830Z,3.14
2018-11-29T23:25:20.628Z,3.26
2018-11-29T23:27:49.345Z,3.30
2018-11-29T23:30:18.489Z,3.17
2018-11-29T23:32:47.287Z,3.16
2018-11-29T23:35:16.423Z,3.06
2018-11-29T23:37:45.173Z,3.06
2018-11-29T23:40:17.375Z,3.21
2018-11-29T23:42:46.626Z,3.25
2018-11-29T23:45:15.612Z,3.24
2018-11-29T23:47:44.483Z,3.31
2018-11-29T23:50:14.932Z,3.36
2018-11-29T23:52:43.860Z,3.12
2018-11-29T23:55:17.035Z,3.20
2018-11-29T23:57:45.824Z,3.16
